METAR Data
IDs: Format: Raw Decoded Include TAF

Data at: 1304 UTC 11 Dec 2018

KJCT 111251Z AUTO 00000KT 9SM CLR M02/M03 A3035 RMK AO2 SLP270 I1000 T10221033
KJCT 111151Z AUTO 00000KT 9SM CLR M02/M03 A3034 RMK AO2 SLP265 T10221033 10006 21022 55009
KJCT 111051Z AUTO 28003KT 9SM CLR M02/M03 A3034 RMK AO2 SLP262 T10171028
KJCT 110951Z AUTO 27003KT 8SM CLR M02/M03 A3036 RMK AO2 SLP269 T10171028
KJCT 110851Z AUTO 27004KT 8SM CLR M01/M02 A3037 RMK AO2 SLP271 T10111022 55003
KJCT 110751Z AUTO 28003KT 8SM CLR M01/M02 A3036 RMK AO2 SLP270 T10111022
KJCT 110651Z AUTO 30003KT 9SM CLR 00/M01 A3037 RMK AO2 SLP274 T00001011
KJCT 110551Z AUTO 00000KT 9SM CLR 01/M01 A3038 RMK AO2 SLP276 T00061006 10106 20006 401611033 50001
KJCT 110451Z AUTO 00000KT 9SM CLR 02/01 A3039 RMK AO2 SLP281 T00170006
KJCT 110351Z AUTO 28003KT 10SM CLR 03/01 A3038 RMK AO2 SLP281 T00280011
KJCT 110251Z AUTO 27003KT 10SM CLR 04/02 A3037 RMK AO2 SLP280 T00390017 51011
KJCT 110151Z AUTO 00000KT 10SM CLR 06/03 A3036 RMK AO2 SLP277 T00610028
KJCT 110051Z AUTO 00000KT 10SM CLR 07/02 A3035 RMK AO2 SLP273 T00670022
KJCT 102351Z AUTO 00000KT 10SM CLR 11/03 A3034 RMK AO2 SLP266 T01060028 10161 20106 53005
KJCT 102251Z AUTO 20005KT 10SM CLR 14/01 A3033 RMK AO2 SLP258 T01440011
KJCT 102151Z AUTO 00000KT 10SM CLR 16/01 A3032 RMK AO2 SLP254 T01560006
KJCT 102051Z AUTO 21005KT 10SM CLR 15/00 A3032 RMK AO2 SLP256 T01500000 56028
KJCT 101951Z AUTO 27004KT 10SM CLR 14/M02 A3034 RMK AO2 SLP262 T01441017
KJCT 101851Z AUTO 29004KT 10SM CLR 13/M04 A3037 RMK AO2 SLP273 T01281039
KJCT 101751Z AUTO VRB03KT 10SM CLR 11/M01 A3041 RMK AO2 SLP287 I6000 T01111011 10111 21033 58008
KJCT 101651Z AUTO 00000KT 10SM CLR 08/01 A3044 RMK AO2 SLP299 T00780011
KJCT 101551Z AUTO 27003KT 8SM CLR 03/00 A3045 RMK AO2 SLP303 T00280000
KJCT 101451Z AUTO 26003KT 7SM CLR M01/M03 A3043 RMK AO2 SLP301 I3000 T10061028 51012
KJCT 101358Z AUTO 00000KT 6SM BR CLR M03/M04 A3042 RMK AO2 T10281039
KJCT 101351Z AUTO 27003KT 2 1/2SM BR CLR M03/M04 A3042 RMK AO2 SLP298 I1000 T10281044
KJCT 101251Z AUTO 00000KT 9SM CLR M03/M04 A3041 RMK AO2 SLP294 I1000 T10331044
KJCT 101151Z AUTO 00000KT 9SM CLR M03/M04 A3040 RMK AO2 SLP288 T10281039 10000 21028 53002
KJCT 101051Z AUTO 27003KT 9SM CLR M02/M03 A3038 RMK AO2 SLP281 T10221033
KJCT 100951Z AUTO 28004KT 9SM CLR M02/M03 A3038 RMK AO2 SLP280 T10221033
KJCT 100851Z AUTO 28003KT 9SM CLR M02/M03 A3039 RMK AO2 SLP283 T10171028 57006
KJCT 100751Z AUTO 00000KT 8SM CLR M02/M03 A3040 RMK AO2 SLP284 T10171028
KJCT 100651Z AUTO 29003KT 8SM CLR M01/M02 A3040 RMK AO2 SLP287 T10111022
KJCT 100551Z AUTO 00000KT 9SM CLR 00/M01 A3041 RMK AO2 SLP289 T00001011 10067 20000 401111017 51009
KJCT 100451Z AUTO 30003KT 10SM CLR 01/M01 A3041 RMK AO2 SLP289 T00111006
KJCT 100351Z AUTO 30003KT 10SM CLR 02/00 A3040 RMK AO2 SLP285 T00220000
KJCT 100251Z AUTO 00000KT 10SM CLR 03/00 A3038 RMK AO2 SLP281 T00330000 51015
KJCT 100151Z AUTO 35007KT 10SM CLR 05/01 A3037 RMK AO2 SLP278 T00500006